createdAt,value
2019-04-29T00:00:33.861Z,5.35
2019-04-29T00:01:08.896Z,5.70
2019-04-29T00:01:45.248Z,6.17
2019-04-29T00:02:25.612Z,5.53
2019-04-29T00:02:59.186Z,5.03
2019-04-29T00:03:32.707Z,5.62
2019-04-29T00:04:06.359Z,5.85
2019-04-29T00:04:39.943Z,5.80
2019-04-29T00:05:14.104Z,5.50
2019-04-29T00:05:47.606Z,6.53
2019-04-29T00:06:21.229Z,5.30
2019-04-29T00:06:55.228Z,5.25
2019-04-29T00:07:28.739Z,5.55
2019-04-29T00:08:02.231Z,6.37
2019-04-29T00:08:35.918Z,6.08
2019-04-29T00:09:11.958Z,5.67
2019-04-29T00:09:45.562Z,5.08
2019-04-29T00:10:21.207Z,5.10
2019-04-29T00:10:54.705Z,5.87
2019-04-29T00:11:28.283Z,5.45
2019-04-29T00:12:01.962Z,5.35
2019-04-29T00:12:35.571Z,5.45
2019-04-29T00:13:09.102Z,5.75
2019-04-29T00:13:42.707Z,4.40
2019-04-29T00:14:16.247Z,4.70
2019-04-29T00:14:57.165Z,6.83
2019-04-29T00:15:42.210Z,5.33
2019-04-29T00:16:27.155Z,5.03
2019-04-29T00:17:25.473Z,5.03
2019-04-29T00:18:02.451Z,5.75
2019-04-29T00:19:00.831Z,5.05
2019-04-29T00:19:47.334Z,5.42
2019-04-29T00:20:26.251Z,5.05
2019-04-29T00:20:59.743Z,5.55
2019-04-29T00:21:33.261Z,6.22
2019-04-29T00:22:06.787Z,4.00
2019-04-29T00:22:40.295Z,6.40
2019-04-29T00:23:13.937Z,5.08
2019-04-29T00:23:47.450Z,5.35
2019-04-29T00:24:21.080Z,5.25
2019-04-29T00:24:54.604Z,5.35
2019-04-29T00:25:28.122Z,5.00
2019-04-29T00:26:01.640Z,4.95
2019-04-29T00:26:35.334Z,4.97
2019-04-29T00:27:10.142Z,4.80
2019-04-29T00:27:43.671Z,4.47
2019-04-29T00:28:17.175Z,5.17
2019-04-29T00:28:50.690Z,4.58
2019-04-29T00:29:24.261Z,4.75
2019-04-29T00:29:57.873Z,5.80
2019-04-29T00:30:31.474Z,5.50
2019-04-29T00:31:05.083Z,4.95
2019-04-29T00:31:38.638Z,4.95
2019-04-29T00:32:12.802Z,5.12
2019-04-29T00:32:46.382Z,4.85
2019-04-29T00:33:19.909Z,5.10
2019-04-29T00:33:53.386Z,5.10
2019-04-29T00:34:26.873Z,5.45
2019-04-29T00:35:00.376Z,4.90
2019-04-29T00:35:33.907Z,6.22
2019-04-29T00:36:07.938Z,4.95
2019-04-29T00:37:04.820Z,5.30
2019-04-29T00:37:58.037Z,4.42
2019-04-29T00:38:55.802Z,4.65
2019-04-29T00:39:48.444Z,5.12
2019-04-29T00:40:50.152Z,5.60
2019-04-29T00:41:36.818Z,4.30
2019-04-29T00:42:17.016Z,5.22
2019-04-29T00:43:12.259Z,5.15
2019-04-29T00:43:52.604Z,5.25
2019-04-29T00:44:26.065Z,5.00
2019-04-29T00:44:59.550Z,5.17
2019-04-29T00:45:33.106Z,5.30
2019-04-29T00:46:06.674Z,5.50
2019-04-29T00:46:40.158Z,5.95
2019-04-29T00:47:13.874Z,5.60
2019-04-29T00:47:47.358Z,5.22
2019-04-29T00:48:21.021Z,5.10
2019-04-29T00:48:54.584Z,5.70
2019-04-29T00:49:28.081Z,5.87
2019-04-29T00:50:01.495Z,5.42
2019-04-29T00:50:34.990Z,5.47
2019-04-29T00:51:08.495Z,5.40
2019-04-29T00:51:41.978Z,5.85
2019-04-29T00:52:15.593Z,5.45
2019-04-29T00:52:49.070Z,5.62
2019-04-29T00:53:22.614Z,5.65
2019-04-29T00:54:01.867Z,5.62
2019-04-29T00:54:49.974Z,5.80
2019-04-29T00:55:25.537Z,5.92
2019-04-29T00:56:01.071Z,6.00
2019-04-29T00:56:34.564Z,5.83
2019-04-29T00:57:08.034Z,5.70
2019-04-29T00:57:41.569Z,5.97
2019-04-29T00:58:15.046Z,5.65
2019-04-29T00:58:48.713Z,5.58
2019-04-29T00:59:22.267Z,5.55
2019-04-29T00:59:55.785Z,5.55
2019-04-29T01:00:33.414Z,5.60
2019-04-29T01:01:08.416Z,5.95
2019-04-29T01:01:42.384Z,6.22
2019-04-29T01:02:15.943Z,6.05
2019-04-29T01:02:49.462Z,5.90
2019-04-29T01:03:22.951Z,6.60
2019-04-29T01:03:56.446Z,5.60
2019-04-29T01:04:29.969Z,6.50
2019-04-29T01:05:03.576Z,6.00
2019-04-29T01:05:37.343Z,7.00
2019-04-29T01:06:10.850Z,5.90
2019-04-29T01:06:44.442Z,6.22
2019-04-29T01:07:18.309Z,6.25
2019-04-29T01:07:52.717Z,5.97
2019-04-29T01:08:26.326Z,5.97
2019-04-29T01:08:59.892Z,7.00
2019-04-29T01:09:33.388Z,6.45
2019-04-29T01:10:07.090Z,6.87
2019-04-29T01:10:40.611Z,5.75
2019-04-29T01:11:14.183Z,6.85
2019-04-29T01:11:47.671Z,7.70
2019-04-29T01:12:21.226Z,6.67
2019-04-29T01:12:55.577Z,6.70
2019-04-29T01:13:29.065Z,6.03
2019-04-29T01:14:02.546Z,6.17
2019-04-29T01:14:36.065Z,6.62
2019-04-29T01:15:09.775Z,6.85
2019-04-29T01:15:43.266Z,5.70
2019-04-29T01:16:16.743Z,7.08
2019-04-29T01:16:50.233Z,6.37
2019-04-29T01:17:24.115Z,6.85
2019-04-29T01:17:57.723Z,6.92
2019-04-29T01:18:31.202Z,6.40
2019-04-29T01:19:04.777Z,6.42
2019-04-29T01:19:38.271Z,7.00
2019-04-29T01:20:11.829Z,6.60
2019-04-29T01:20:45.312Z,6.92
2019-04-29T01:21:18.801Z,6.62
2019-04-29T01:21:52.360Z,6.47
2019-04-29T01:22:26.649Z,6.97
2019-04-29T01:23:00.195Z,6.37
2019-04-29T01:23:33.723Z,6.80
2019-04-29T01:24:07.206Z,6.20
2019-04-29T01:24:40.683Z,6.75
2019-04-29T01:25:14.189Z,6.70
2019-04-29T01:25:50.571Z,6.72
2019-04-29T01:26:43.210Z,6.08
2019-04-29T01:27:20.971Z,6.50
2019-04-29T01:28:03.602Z,6.30
2019-04-29T01:28:45.346Z,6.35
2019-04-29T01:29:19.249Z,6.50
2019-04-29T01:29:52.738Z,6.42
2019-04-29T01:30:48.122Z,6.28
2019-04-29T01:31:26.071Z,5.62
2019-04-29T01:31:59.567Z,7.03
2019-04-29T01:32:33.053Z,6.65
2019-04-29T01:33:06.538Z,7.08
2019-04-29T01:33:40.141Z,6.55
2019-04-29T01:34:23.838Z,6.47
2019-04-29T01:34:57.341Z,7.70
2019-04-29T01:35:30.832Z,5.97
2019-04-29T01:36:23.591Z,6.70
2019-04-29T01:36:57.106Z,7.08
2019-04-29T01:37:36.788Z,5.90
2019-04-29T01:38:10.271Z,6.67
2019-04-29T01:38:44.727Z,6.58
2019-04-29T01:39:18.222Z,6.85
2019-04-29T01:39:59.381Z,6.65
2019-04-29T01:40:42.183Z,6.62
2019-04-29T01:41:18.238Z,6.08
2019-04-29T01:41:59.533Z,7.62
2019-04-29T01:42:36.260Z,6.80
2019-04-29T01:43:09.747Z,7.28
2019-04-29T01:44:02.931Z,7.37
2019-04-29T01:44:37.581Z,7.10
2019-04-29T01:45:11.067Z,6.30
2019-04-29T01:45:44.555Z,7.25
2019-04-29T01:46:18.080Z,7.28
2019-04-29T01:46:51.592Z,6.95
2019-04-29T01:47:25.071Z,6.70
2019-04-29T01:47:58.554Z,7.87
2019-04-29T01:48:32.025Z,7.08
2019-04-29T01:49:05.731Z,7.90
2019-04-29T01:49:39.454Z,7.78
2019-04-29T01:50:12.947Z,7.55
2019-04-29T01:50:46.434Z,7.30
2019-04-29T01:51:19.999Z,6.62
2019-04-29T01:51:53.531Z,7.80
2019-04-29T01:52:27.059Z,7.62
2019-04-29T01:53:00.630Z,7.55
2019-04-29T01:53:34.222Z,7.75
2019-04-29T01:54:07.735Z,8.10
2019-04-29T01:54:41.248Z,8.53
2019-04-29T01:55:14.853Z,7.50
2019-04-29T01:55:48.414Z,7.70
2019-04-29T01:56:21.908Z,7.30
2019-04-29T01:56:55.401Z,8.70
2019-04-29T01:57:28.893Z,7.15
2019-04-29T01:58:03.826Z,8.88
2019-04-29T01:58:37.298Z,6.60
2019-04-29T01:59:11.855Z,7.70
2019-04-29T01:59:45.352Z,7.35
2019-04-29T02:00:19.136Z,7.40
2019-04-29T02:00:52.613Z,7.60
2019-04-29T02:01:26.117Z,8.00
2019-04-29T02:01:59.615Z,8.63
2019-04-29T02:02:33.111Z,8.08
2019-04-29T02:03:06.634Z,8.28
2019-04-29T02:03:40.200Z,7.25
2019-04-29T02:04:13.706Z,7.72
2019-04-29T02:04:47.187Z,9.48
2019-04-29T02:05:20.763Z,8.38
2019-04-29T02:05:54.266Z,8.10
2019-04-29T02:06:27.787Z,8.30
2019-04-29T02:07:01.290Z,8.73
2019-04-29T02:07:34.784Z,7.70
2019-04-29T02:08:08.346Z,9.25
2019-04-29T02:08:41.905Z,7.80
2019-04-29T02:09:23.045Z,8.43
2019-04-29T02:10:11.591Z,8.98
2019-04-29T02:10:45.104Z,8.05
2019-04-29T02:11:18.602Z,8.93
2019-04-29T02:11:52.109Z,8.78
2019-04-29T02:12:25.526Z,9.45
2019-04-29T02:12:59.026Z,8.45
2019-04-29T02:13:32.527Z,8.55
2019-04-29T02:14:06.030Z,9.03
2019-04-29T02:14:39.590Z,9.13
2019-04-29T02:15:13.158Z,10.10
2019-04-29T02:15:46.649Z,9.40
2019-04-29T02:16:20.136Z,9.20
2019-04-29T02:16:53.635Z,9.40
2019-04-29T02:17:27.148Z,9.90
2019-04-29T02:18:00.652Z,8.53
2019-04-29T02:18:34.142Z,9.83
2019-04-29T02:19:07.713Z,9.73
2019-04-29T02:19:41.236Z,9.05
2019-04-29T02:20:14.743Z,10.75
2019-04-29T02:20:48.226Z,9.88
2019-04-29T02:21:21.942Z,10.70
2019-04-29T02:22:13.626Z,10.38
2019-04-29T02:23:31.249Z,10.10
2019-04-29T02:24:14.908Z,9.78
2019-04-29T02:24:52.713Z,9.68
2019-04-29T02:25:31.085Z,10.13
2019-04-29T02:26:05.265Z,9.43
2019-04-29T02:26:38.763Z,10.75
2019-04-29T02:27:12.257Z,10.60
2019-04-29T02:27:45.747Z,8.80
2019-04-29T02:28:19.325Z,10.08
2019-04-29T02:28:52.822Z,10.98
2019-04-29T02:29:26.309Z,10.90
2019-04-29T02:29:59.842Z,9.65
2019-04-29T02:30:37.661Z,10.15
2019-04-29T02:31:29.275Z,11.88
2019-04-29T02:32:02.755Z,11.50
2019-04-29T02:32:36.243Z,10.13
2019-04-29T02:33:09.743Z,10.48
2019-04-29T02:33:43.302Z,12.47
2019-04-29T02:34:16.791Z,11.88
2019-04-29T02:34:50.278Z,11.05
2019-04-29T02:35:23.779Z,11.48
2019-04-29T02:35:57.365Z,12.28
2019-04-29T02:36:30.783Z,10.60
2019-04-29T02:37:05.944Z,9.28
2019-04-29T02:37:41.180Z,10.95
2019-04-29T02:38:26.099Z,10.93
2019-04-29T02:39:27.895Z,11.18
2019-04-29T02:40:07.681Z,11.90
2019-04-29T02:40:57.821Z,10.40
2019-04-29T02:41:47.031Z,10.90
2019-04-29T02:42:42.844Z,11.20
2019-04-29T02:43:20.559Z,9.60
2019-04-29T02:43:54.263Z,12.50
2019-04-29T02:44:27.746Z,11.68
2019-04-29T02:45:05.610Z,12.30
2019-04-29T02:45:39.607Z,12.10
2019-04-29T02:46:13.140Z,12.45
2019-04-29T02:46:46.703Z,12.88
2019-04-29T02:47:20.223Z,11.70
2019-04-29T02:47:53.719Z,12.30
2019-04-29T02:48:31.646Z,13.15
2019-04-29T02:49:02.431Z,12.60
2019-04-29T02:49:37.099Z,11.03
2019-04-29T02:50:10.765Z,13.13
2019-04-29T02:50:46.100Z,11.75
2019-04-29T02:51:56.656Z,13.88
2019-04-29T02:52:32.334Z,12.88
2019-04-29T02:53:05.979Z,12.30
2019-04-29T02:53:40.626Z,13.10
2019-04-29T02:54:14.250Z,13.38
2019-04-29T02:54:47.943Z,11.75
2019-04-29T02:55:27.662Z,12.65
2019-04-29T02:56:02.278Z,13.93
2019-04-29T02:56:35.859Z,12.88
2019-04-29T02:57:17.138Z,13.80
2019-04-29T02:57:59.969Z,14.63
2019-04-29T02:58:39.482Z,13.45
2019-04-29T02:59:13.630Z,12.43
2019-04-29T02:59:58.801Z,13.08
2019-04-29T03:00:51.554Z,14.45
2019-04-29T03:01:34.089Z,13.50
2019-04-29T03:02:17.134Z,12.35
2019-04-29T03:02:59.169Z,13.30
2019-04-29T03:03:46.923Z,13.78
2019-04-29T03:04:23.922Z,13.40
2019-04-29T03:05:15.366Z,13.20
2019-04-29T03:05:51.779Z,12.93
2019-04-29T03:06:25.467Z,13.10
2019-04-29T03:06:59.483Z,12.53
2019-04-29T03:07:33.630Z,13.38
2019-04-29T03:08:07.171Z,14.23
2019-04-29T03:08:40.838Z,14.15
2019-04-29T03:09:14.466Z,13.98
2019-04-29T03:09:48.313Z,14.05
2019-04-29T03:10:21.901Z,14.47
2019-04-29T03:10:55.593Z,14.10
2019-04-29T03:11:29.232Z,13.18
2019-04-29T03:12:02.858Z,12.13
2019-04-29T03:12:36.447Z,12.63
2019-04-29T03:13:10.124Z,12.98
2019-04-29T03:13:43.816Z,14.25
2019-04-29T03:14:17.749Z,14.55
2019-04-29T03:14:51.379Z,14.13
2019-04-29T03:15:32.356Z,13.70
2019-04-29T03:16:05.881Z,13.55
2019-04-29T03:16:39.598Z,13.68
2019-04-29T03:17:13.243Z,14.87
2019-04-29T03:17:46.800Z,13.53
2019-04-29T03:18:22.448Z,15.13
2019-04-29T03:19:01.289Z,13.70
2019-04-29T03:19:37.763Z,13.85
2019-04-29T03:20:22.969Z,16.12
2019-04-29T03:21:04.028Z,14.70
2019-04-29T03:21:42.555Z,12.98
2019-04-29T03:22:16.237Z,14.10
2019-04-29T03:22:49.766Z,14.75
2019-04-29T03:23:23.865Z,15.53
2019-04-29T03:23:57.419Z,14.70
2019-04-29T03:24:30.953Z,13.40
2019-04-29T03:25:04.488Z,14.55
2019-04-29T03:25:38.018Z,13.95
2019-04-29T03:26:11.604Z,13.32
2019-04-29T03:26:45.121Z,14.68
2019-04-29T03:27:18.697Z,12.58
2019-04-29T03:27:52.326Z,13.15
2019-04-29T03:28:25.885Z,14.00
2019-04-29T03:28:59.387Z,12.23
2019-04-29T03:29:33.003Z,15.23
2019-04-29T03:30:06.738Z,13.25
2019-04-29T03:30:40.275Z,15.60
2019-04-29T03:31:13.791Z,15.60
2019-04-29T03:31:47.443Z,15.60
2019-04-29T03:32:20.961Z,16.05
2019-04-29T03:32:54.479Z,15.50
2019-04-29T03:33:28.048Z,16.35
2019-04-29T03:34:01.554Z,15.53
2019-04-29T03:34:35.069Z,15.28
2019-04-29T03:35:09.084Z,15.28
2019-04-29T03:35:42.579Z,15.50
2019-04-29T03:36:16.083Z,17.00
2019-04-29T03:36:49.579Z,15.23
2019-04-29T03:37:23.098Z,15.48
2019-04-29T03:37:56.662Z,15.10
2019-04-29T03:38:30.175Z,15.25
2019-04-29T03:39:05.709Z,15.35
2019-04-29T03:39:39.276Z,14.05
2019-04-29T03:40:12.990Z,14.73
2019-04-29T03:40:46.488Z,15.32
2019-04-29T03:41:20.047Z,15.35
2019-04-29T03:41:53.573Z,15.83
2019-04-29T03:42:27.535Z,14.40
2019-04-29T03:43:01.148Z,14.38
2019-04-29T03:43:34.707Z,13.88
2019-04-29T03:44:08.223Z,14.58
2019-04-29T03:44:41.912Z,15.55
2019-04-29T03:45:15.419Z,15.60
2019-04-29T03:45:48.994Z,15.53
2019-04-29T03:46:22.494Z,15.13
2019-04-29T03:46:56.200Z,15.28
2019-04-29T03:47:29.794Z,15.98
2019-04-29T03:48:03.342Z,16.62
2019-04-29T03:48:36.993Z,14.00
2019-04-29T03:49:10.534Z,14.70
2019-04-29T03:49:44.141Z,16.30
2019-04-29T03:50:17.679Z,14.30
2019-04-29T03:50:51.229Z,14.70
2019-04-29T03:51:24.838Z,14.73
2019-04-29T03:51:58.454Z,14.03
2019-04-29T03:52:32.226Z,15.25
2019-04-29T03:53:05.896Z,15.25
2019-04-29T03:53:39.424Z,14.75
2019-04-29T03:54:12.951Z,14.60
2019-04-29T03:54:46.606Z,14.33
2019-04-29T03:55:37.609Z,13.03
2019-04-29T03:55:56.559Z,11.73
2019-04-29T03:56:30.215Z,11.20
2019-04-29T03:57:03.756Z,13.88
2019-04-29T03:57:38.778Z,15.72
2019-04-29T03:58:12.354Z,16.48
2019-04-29T03:58:45.870Z,15.60
2019-04-29T03:59:19.442Z,14.87
2019-04-29T04:00:13.732Z,16.42
2019-04-29T04:00:49.417Z,13.88
2019-04-29T04:01:28.740Z,15.03
2019-04-29T04:02:23.118Z,14.20
2019-04-29T04:03:02.432Z,13.30
2019-04-29T04:03:40.629Z,16.35
2019-04-29T04:04:39.144Z,13.78
2019-04-29T04:05:40.873Z,14.58
2019-04-29T04:06:20.708Z,14.10
2019-04-29T04:07:03.854Z,15.00
2019-04-29T04:08:01.682Z,15.25
2019-04-29T04:09:06.295Z,12.25
2019-04-29T04:09:35.810Z,13.65
2019-04-29T04:10:09.508Z,14.07
2019-04-29T04:10:42.990Z,13.80
2019-04-29T04:11:16.448Z,14.80
2019-04-29T04:11:49.989Z,14.63
2019-04-29T04:12:23.479Z,15.68
2019-04-29T04:12:57.003Z,15.98
2019-04-29T04:13:30.416Z,13.85
2019-04-29T04:14:03.914Z,16.55
2019-04-29T04:14:37.403Z,15.80
2019-04-29T04:15:10.960Z,14.30
2019-04-29T04:15:44.443Z,14.55
2019-04-29T04:16:28.322Z,13.18
2019-04-29T04:17:20.687Z,15.40
2019-04-29T04:18:15.036Z,13.25
2019-04-29T04:18:48.581Z,15.50
2019-04-29T04:19:22.327Z,16.00
2019-04-29T04:19:55.927Z,15.65
2019-04-29T04:20:29.434Z,15.75
2019-04-29T04:21:03.271Z,15.68
2019-04-29T04:21:36.837Z,15.50
2019-04-29T04:22:10.742Z,15.10
2019-04-29T04:22:49.980Z,13.20
2019-04-29T04:23:25.684Z,15.45
2019-04-29T04:23:59.207Z,14.68
2019-04-29T04:24:32.931Z,14.23
2019-04-29T04:25:06.553Z,15.60
2019-04-29T04:25:41.985Z,14.35
2019-04-29T04:26:15.528Z,13.95
2019-04-29T04:26:49.054Z,14.70
2019-04-29T04:27:23.534Z,15.32
2019-04-29T04:27:58.800Z,16.37
2019-04-29T04:28:32.294Z,14.45
2019-04-29T04:29:05.791Z,13.98
2019-04-29T04:29:39.275Z,15.98
2019-04-29T04:30:13.173Z,15.35
2019-04-29T04:30:46.707Z,15.85
2019-04-29T04:31:20.248Z,14.45
2019-04-29T04:31:53.651Z,14.55
2019-04-29T04:32:27.136Z,15.45
2019-04-29T04:33:00.747Z,14.85
2019-04-29T04:33:34.219Z,15.98
2019-04-29T04:34:07.725Z,15.80
2019-04-29T04:34:41.319Z,16.42
2019-04-29T04:35:15.071Z,17.17
2019-04-29T04:35:48.647Z,15.50
2019-04-29T04:36:22.145Z,16.27
2019-04-29T04:36:59.965Z,16.27
2019-04-29T04:37:30.885Z,15.20
2019-04-29T04:38:05.104Z,17.07
2019-04-29T04:38:38.647Z,14.68
2019-04-29T04:39:12.139Z,15.18
2019-04-29T04:39:45.627Z,14.28
2019-04-29T04:40:25.008Z,15.10
2019-04-29T04:41:02.424Z,15.03
2019-04-29T04:41:35.927Z,15.60
2019-04-29T04:42:09.455Z,15.20
2019-04-29T04:42:42.962Z,15.85
2019-04-29T04:43:16.562Z,16.15
2019-04-29T04:43:50.074Z,14.00
2019-04-29T04:44:26.261Z,15.48
2019-04-29T04:44:59.757Z,15.93
2019-04-29T04:45:33.271Z,15.08
2019-04-29T04:46:06.876Z,15.70
2019-04-29T04:46:40.475Z,15.70
2019-04-29T04:47:13.964Z,15.75
2019-04-29T04:47:47.494Z,15.40
2019-04-29T04:48:21.459Z,15.25
2019-04-29T04:48:54.941Z,16.62
2019-04-29T04:49:28.452Z,15.72
2019-04-29T04:50:02.000Z,16.48
2019-04-29T04:50:35.558Z,14.47
2019-04-29T04:51:08.992Z,15.18
2019-04-29T04:51:42.547Z,16.45
2019-04-29T04:52:41.472Z,13.53
2019-04-29T04:53:15.009Z,15.60
2019-04-29T04:53:48.671Z,15.45
2019-04-29T04:54:22.203Z,15.55
2019-04-29T04:54:55.803Z,16.27
2019-04-29T04:55:31.491Z,15.45
2019-04-29T04:56:05.008Z,13.18
2019-04-29T04:56:38.512Z,14.03
2019-04-29T04:57:11.998Z,13.88
2019-04-29T04:57:45.561Z,16.27
2019-04-29T04:58:19.036Z,15.65
2019-04-29T04:58:52.711Z,16.93
2019-04-29T04:59:26.231Z,16.12
2019-04-29T04:59:59.746Z,17.15
2019-04-29T05:00:35.030Z,17.20
2019-04-29T05:01:08.535Z,15.88
2019-04-29T05:01:42.178Z,15.95
2019-04-29T05:02:15.621Z,16.50
2019-04-29T05:02:49.122Z,13.22
2019-04-29T05:03:22.740Z,16.27
2019-04-29T05:03:56.429Z,14.28
2019-04-29T05:04:30.035Z,15.78
2019-04-29T05:05:03.879Z,16.12
2019-04-29T05:05:37.375Z,16.37
2019-04-29T05:06:11.001Z,16.65
2019-04-29T05:06:44.706Z,14.75
2019-04-29T05:07:18.278Z,15.48
2019-04-29T05:07:51.854Z,14.90
2019-04-29T05:08:25.352Z,15.95
2019-04-29T05:08:58.930Z,16.37
2019-04-29T05:09:32.428Z,16.07
2019-04-29T05:10:06.140Z,17.05
2019-04-29T05:10:39.629Z,16.55
2019-04-29T05:11:13.138Z,16.00
2019-04-29T05:11:46.634Z,16.25
2019-04-29T05:12:20.151Z,14.90
2019-04-29T05:12:53.746Z,17.20
2019-04-29T05:13:28.570Z,15.80
2019-04-29T05:14:03.250Z,15.98
2019-04-29T05:14:36.820Z,14.40
2019-04-29T05:15:10.331Z,11.93
2019-04-29T05:15:43.831Z,15.20
2019-04-29T05:16:17.334Z,14.30
2019-04-29T05:16:50.835Z,15.98
2019-04-29T05:17:24.357Z,14.35
2019-04-29T05:17:57.864Z,15.32
2019-04-29T05:18:31.487Z,10.43
2019-04-29T05:19:04.996Z,16.45
2019-04-29T05:19:38.537Z,15.80
2019-04-29T05:20:12.022Z,16.45
2019-04-29T05:20:45.507Z,16.30
2019-04-29T05:21:18.991Z,17.25
2019-04-29T05:21:52.509Z,15.98
2019-04-29T05:22:26.005Z,16.20
2019-04-29T05:22:59.615Z,15.35
2019-04-29T05:23:33.188Z,16.95
2019-04-29T05:24:06.802Z,16.75
2019-04-29T05:24:40.298Z,18.52
2019-04-29T05:25:13.819Z,16.93
2019-04-29T05:25:47.341Z,17.30
2019-04-29T05:26:21.184Z,16.35
2019-04-29T05:26:54.693Z,17.62
2019-04-29T05:27:28.196Z,17.60
2019-04-29T05:28:01.795Z,16.87
2019-04-29T05:28:35.288Z,15.85
2019-04-29T05:29:08.801Z,17.00
2019-04-29T05:29:42.300Z,15.40
2019-04-29T05:30:15.799Z,17.75
2019-04-29T05:30:49.293Z,16.65
2019-04-29T05:31:22.835Z,15.25
2019-04-29T05:31:57.577Z,16.77
2019-04-29T05:32:32.652Z,17.48
2019-04-29T05:33:08.709Z,16.45
2019-04-29T05:33:45.281Z,17.42
2019-04-29T05:34:26.113Z,17.75
2019-04-29T05:35:01.935Z,17.77
2019-04-29T05:35:45.493Z,17.52
2019-04-29T05:36:34.080Z,16.07
2019-04-29T05:37:27.417Z,16.45
2019-04-29T05:38:06.332Z,17.15
2019-04-29T05:38:46.807Z,15.90
2019-04-29T05:39:26.750Z,16.57
2019-04-29T05:40:00.302Z,15.30
2019-04-29T05:40:38.130Z,15.95
2019-04-29T05:41:11.722Z,14.15
2019-04-29T05:41:45.234Z,14.95
2019-04-29T05:42:18.849Z,18.00
2019-04-29T05:42:53.993Z,17.55
2019-04-29T05:43:56.099Z,17.57
2019-04-29T05:44:39.062Z,15.43
2019-04-29T05:45:23.443Z,16.05
2019-04-29T05:46:23.204Z,14.05
2019-04-29T05:47:01.062Z,16.60
2019-04-29T05:47:39.931Z,15.80
2019-04-29T05:48:14.416Z,16.05
2019-04-29T05:48:48.022Z,14.40
2019-04-29T05:49:26.117Z,15.75
2019-04-29T05:50:18.467Z,12.05
2019-04-29T05:51:08.082Z,17.60
2019-04-29T05:51:47.149Z,16.45
2019-04-29T05:52:42.374Z,15.68
2019-04-29T05:53:20.055Z,15.72
2019-04-29T05:53:55.176Z,14.78
2019-04-29T05:54:31.650Z,17.10
2019-04-29T05:55:05.078Z,17.73
2019-04-29T05:55:38.619Z,18.80
2019-04-29T05:56:12.116Z,19.07
2019-04-29T05:56:45.638Z,17.98
2019-04-29T05:57:20.413Z,17.48
2019-04-29T05:58:02.931Z,17.00
2019-04-29T05:58:33.005Z,18.87
2019-04-29T05:59:08.494Z,16.15
2019-04-29T05:59:43.345Z,18.70
2019-04-29T06:00:23.189Z,16.93
2019-04-29T06:01:10.768Z,16.52
2019-04-29T06:01:47.344Z,18.80
2019-04-29T06:02:19.480Z,16.15
2019-04-29T06:02:53.054Z,16.60
2019-04-29T06:03:26.576Z,17.42
2019-04-29T06:04:00.081Z,18.77
2019-04-29T06:04:33.706Z,17.60
2019-04-29T06:05:07.420Z,17.73
2019-04-29T06:05:41.038Z,16.95
2019-04-29T06:06:14.547Z,17.75
2019-04-29T06:06:48.038Z,18.42
2019-04-29T06:07:23.116Z,17.67
2019-04-29T06:08:01.202Z,18.75
2019-04-29T06:08:34.544Z,17.60
2019-04-29T06:09:11.576Z,16.37
2019-04-29T06:09:43.485Z,18.02
2019-04-29T06:10:18.157Z,17.70
2019-04-29T06:10:52.366Z,16.52
2019-04-29T06:11:25.871Z,19.17
2019-04-29T06:11:59.463Z,17.75
2019-04-29T06:12:32.989Z,17.70
2019-04-29T06:13:06.495Z,18.50
2019-04-29T06:13:39.998Z,17.15
2019-04-29T06:14:13.508Z,17.90
2019-04-29T06:14:48.310Z,16.50
2019-04-29T06:15:21.975Z,19.25
2019-04-29T06:15:55.808Z,15.43
2019-04-29T06:16:29.343Z,16.45
2019-04-29T06:17:07.510Z,17.98
2019-04-29T06:17:39.942Z,17.30
2019-04-29T06:18:13.570Z,12.63
2019-04-29T06:18:47.216Z,16.27
2019-04-29T06:19:20.930Z,14.40
2019-04-29T06:19:54.813Z,14.55
2019-04-29T06:20:28.310Z,16.25
2019-04-29T06:21:08.701Z,13.48
2019-04-29T06:21:37.042Z,14.13
2019-04-29T06:22:10.561Z,17.67
2019-04-29T06:22:44.123Z,15.95
2019-04-29T06:23:18.992Z,16.40
2019-04-29T06:23:54.665Z,17.62
2019-04-29T06:24:28.285Z,16.23
2019-04-29T06:25:01.831Z,15.63
2019-04-29T06:25:35.370Z,16.87
2019-04-29T06:26:08.885Z,14.98
2019-04-29T06:27:01.620Z,16.55
2019-04-29T06:27:54.337Z,16.55
2019-04-29T06:28:28.191Z,15.50
2019-04-29T06:29:01.785Z,16.73
2019-04-29T06:29:35.302Z,17.07
2019-04-29T06:30:09.307Z,16.77
2019-04-29T06:30:45.097Z,17.23
2019-04-29T06:31:18.031Z,17.35
2019-04-29T06:31:51.514Z,16.37
2019-04-29T06:32:26.438Z,16.97
2019-04-29T06:33:00.190Z,16.55
2019-04-29T06:33:33.797Z,17.95
2019-04-29T06:34:07.299Z,16.02
2019-04-29T06:34:41.799Z,17.10
2019-04-29T06:35:15.698Z,17.02
2019-04-29T06:35:49.288Z,15.23
2019-04-29T06:36:22.964Z,18.27
2019-04-29T06:36:56.522Z,14.90
2019-04-29T06:37:30.358Z,15.25
2019-04-29T06:38:04.198Z,16.80
2019-04-29T06:38:37.705Z,16.80
2019-04-29T06:39:11.213Z,15.53
2019-04-29T06:39:44.821Z,13.48
2019-04-29T06:40:19.176Z,16.70
2019-04-29T06:40:52.713Z,16.50
2019-04-29T06:41:26.212Z,18.02
2019-04-29T06:41:59.729Z,16.75
2019-04-29T06:42:34.362Z,15.70
2019-04-29T06:43:07.999Z,17.10
2019-04-29T06:43:41.665Z,15.75
2019-04-29T06:44:16.551Z,15.90
2019-04-29T06:44:50.761Z,17.52
2019-04-29T06:45:28.746Z,17.12
2019-04-29T06:46:02.257Z,16.55
2019-04-29T06:46:56.318Z,16.02
2019-04-29T06:47:30.175Z,15.58
2019-04-29T06:48:03.682Z,15.38
2019-04-29T06:48:37.191Z,14.95
2019-04-29T06:49:10.920Z,12.45
2019-04-29T06:49:44.650Z,14.28
2019-04-29T06:50:18.319Z,14.10
2019-04-29T06:50:51.836Z,13.98
2019-04-29T06:51:25.414Z,15.35
2019-04-29T06:51:58.947Z,12.00
2019-04-29T06:52:33.151Z,13.22
2019-04-29T06:53:06.763Z,13.95
2019-04-29T06:53:40.258Z,12.03
2019-04-29T06:54:13.912Z,15.80
2019-04-29T06:54:47.413Z,16.32
2019-04-29T06:55:20.996Z,15.25
2019-04-29T06:55:54.591Z,14.30
2019-04-29T06:56:28.174Z,17.17
2019-04-29T06:57:01.711Z,15.00
2019-04-29T06:57:35.282Z,16.15
2019-04-29T06:58:08.825Z,14.75
2019-04-29T06:58:42.567Z,12.40
2019-04-29T06:59:16.100Z,15.35
2019-04-29T06:59:49.695Z,16.95
2019-04-29T07:00:24.032Z,16.35
2019-04-29T07:01:01.210Z,14.10
2019-04-29T07:01:33.105Z,16.35
2019-04-29T07:02:09.387Z,15.60
2019-04-29T07:02:45.556Z,16.20
2019-04-29T07:03:21.006Z,14.00
2019-04-29T07:03:55.752Z,15.90
2019-04-29T07:04:30.625Z,17.37
2019-04-29T07:05:04.627Z,16.93
2019-04-29T07:05:38.277Z,13.43
2019-04-29T07:06:11.761Z,18.50
2019-04-29T07:06:56.691Z,15.30
2019-04-29T07:07:20.504Z,12.50
2019-04-29T07:07:54.001Z,14.30
2019-04-29T07:08:27.550Z,13.55
2019-04-29T07:09:01.084Z,14.93
2019-04-29T07:09:34.666Z,14.98
2019-04-29T07:10:08.392Z,14.83
2019-04-29T07:10:41.977Z,16.55
2019-04-29T07:11:15.958Z,16.75
2019-04-29T07:11:49.561Z,15.05
2019-04-29T07:12:23.140Z,15.83
2019-04-29T07:12:56.801Z,15.45
2019-04-29T07:13:30.299Z,13.93
2019-04-29T07:14:03.895Z,15.30
2019-04-29T07:14:38.584Z,15.18
2019-04-29T07:15:13.878Z,11.25
2019-04-29T07:15:48.940Z,13.78
2019-04-29T07:16:27.286Z,9.73
2019-04-29T07:17:00.759Z,15.55
2019-04-29T07:17:36.495Z,14.53
2019-04-29T07:18:08.419Z,16.50
2019-04-29T07:18:48.335Z,14.53
2019-04-29T07:19:17.178Z,11.55
2019-04-29T07:19:50.662Z,12.07
2019-04-29T07:20:24.244Z,14.85
2019-04-29T07:20:57.806Z,13.15
2019-04-29T07:21:31.481Z,12.80
2019-04-29T07:22:05.078Z,13.22
2019-04-29T07:22:38.502Z,14.83
2019-04-29T07:23:12.073Z,12.47
2019-04-29T07:23:46.379Z,15.00
2019-04-29T07:24:20.457Z,15.45
2019-04-29T07:24:54.198Z,15.88
2019-04-29T07:25:28.803Z,14.85
2019-04-29T07:26:03.496Z,16.02
2019-04-29T07:26:37.032Z,13.25
2019-04-29T07:27:10.542Z,14.50
2019-04-29T07:27:44.611Z,13.83
2019-04-29T07:28:18.659Z,14.10
2019-04-29T07:28:53.513Z,13.30
2019-04-29T07:29:32.821Z,11.03
2019-04-29T07:30:06.701Z,13.25
2019-04-29T07:30:59.902Z,15.65
2019-04-29T07:31:14.448Z,15.05
2019-04-29T07:31:49.166Z,14.55
2019-04-29T07:32:22.801Z,14.93
2019-04-29T07:32:56.316Z,14.60
2019-04-29T07:33:29.821Z,12.03
2019-04-29T07:34:03.325Z,14.18
2019-04-29T07:34:39.541Z,14.10
2019-04-29T07:35:12.457Z,15.68
2019-04-29T07:35:48.087Z,13.88
2019-04-29T07:36:22.737Z,14.63
2019-04-29T07:36:57.626Z,11.00
2019-04-29T07:37:34.012Z,13.53
2019-04-29T07:38:08.609Z,14.60
2019-04-29T07:38:46.583Z,14.60
2019-04-29T07:39:17.518Z,14.60
2019-04-29T07:39:52.115Z,13.88
2019-04-29T07:40:26.666Z,13.45
2019-04-29T07:41:00.254Z,13.28
2019-04-29T07:41:33.876Z,12.75
2019-04-29T07:42:07.520Z,13.05
2019-04-29T07:42:41.318Z,13.22
2019-04-29T07:43:14.833Z,13.25
2019-04-29T07:43:48.420Z,13.13
2019-04-29T07:44:21.985Z,13.28